Terminal Aerodrome Forecast
Issued by NWS

Home | Current Version | Previous Version | Text Only | Print | Product List | Glossary On
Versions: 1 2 3 4 5 6 7 8 9 10 11 12 13 14 15 16
000
FTUS44 KEPZ 211200 AAA
TAFDMN
TAF AMD
KDMN 211226Z 2112/2212 06009KT P6SM VCTS SCT050CB BKN060
      TEMPO 2112/2114 5SM TSRA BKN040CB OVC060
     FM211800 12009KT P6SM VCTS SCT050CB BKN080 BKN200
      TEMPO 2202/2206 VRB25G35KT 3SM TSRA BKN040CB OVC080
     FM220600 08007KT P6SM VCSH BKN050 OVC080=

USA.gov is the U.S. government's official web portal to all federal, state and local government web resources and services.